Time;durP1;ratioP1;P1;durP2;ratioP2;P2;SDS_P1;SDS_P2;PMS_P1;PMS_P2;Temp;Humidity;BMP_temperature;BMP_pressure;BME280_temperature;BME280_humidity;BME280_pressure;Samples;Min_cycle;Max_cycle;Signal;HPM_P1;HPM_P2
2023/12/10 00:00:45;;;;;;;;;7.00;2.75;;;;;11.00;68.31;100474.69;4938279;28;45204;-69
2023/12/10 00:03:10;;;;;;;;;6.25;2.00;;;;;11.02;68.32;100470.25;4942308;28;59006;-69
2023/12/10 00:05:36;;;;;;;;;3.50;2.00;;;;;11.01;67.89;100479.03;4941788;28;53932;-69
2023/12/10 00:08:01;;;;;;;;;3.00;2.00;;;;;11.00;68.07;100477.31;4937002;28;73131;-69
2023/12/10 00:10:26;;;;;;;;;7.75;2.75;;;;;11.00;68.34;100476.47;4945568;28;51199;-70
2023/12/10 00:12:52;;;;;;;;;5.25;2.75;;;;;11.01;68.11;100483.38;4945658;28;45640;-70
2023/12/10 00:15:17;;;;;;;;;7.50;5.00;;;;;11.01;68.26;100489.50;4939285;28;73380;-69
2023/12/10 00:17:42;;;;;;;;;10.00;3.25;;;;;11.01;68.22;100489.50;4957445;28;67992;-69
2023/12/10 00:20:08;;;;;;;;;5.00;2.00;;;;;11.01;68.22;100506.94;4948437;28;45401;-70
2023/12/10 00:22:34;;;;;;;;;7.25;2.25;;;;;10.99;68.06;100501.75;4930467;28;46058;-70
2023/12/10 00:24:59;;;;;;;;;6.75;1.75;;;;;10.99;68.08;100508.78;4941048;28;63726;-70
2023/12/10 00:27:24;;;;;;;;;5.00;2.25;;;;;10.99;68.14;100498.28;4940089;28;47319;-70
2023/12/10 00:29:50;;;;;;;;;3.50;2.75;;;;;10.96;68.33;100499.25;4942438;28;69305;-69
2023/12/10 00:32:15;;;;;;;;;6.50;3.00;;;;;10.94;68.48;100506.31;4938496;28;45536;-69
2023/12/10 00:34:41;;;;;;;;;5.75;3.50;;;;;10.93;68.43;100501.13;4942737;28;45460;-70
2023/12/10 00:37:06;;;;;;;;;10.75;3.75;;;;;10.92;68.58;100507.25;4926978;28;45578;-70
2023/12/10 00:39:32;;;;;;;;;7.25;2.25;;;;;10.91;68.64;100510.78;4938687;28;45482;-69
2023/12/10 00:41:57;;;;;;;;;4.50;2.00;;;;;10.91;68.47;100502.94;4935756;28;67028;-70
2023/12/10 00:44:22;;;;;;;;;8.00;2.00;;;;;10.89;68.40;100516.06;4942070;28;75491;-70
2023/12/10 00:46:48;;;;;;;;;3.25;2.00;;;;;10.88;68.65;100523.97;4938758;28;66573;-70
2023/12/10 00:49:13;;;;;;;;;7.75;3.00;;;;;10.87;69.02;100509.16;4944743;28;45477;-70
2023/12/10 00:51:38;;;;;;;;;5.25;2.00;;;;;10.89;68.70;100517.81;4943283;28;45461;-70
2023/12/10 00:54:06;;;;;;;;;2.50;1.25;;;;;10.86;68.63;100521.41;4944386;28;75552;-69
2023/12/10 00:56:31;;;;;;;;;3.50;2.00;;;;;10.82;68.61;100532.88;4936642;28;45803;-70
2023/12/10 00:58:57;;;;;;;;;7.00;2.00;;;;;10.81;68.82;100542.47;4944754;28;45791;-70
2023/12/10 01:01:22;;;;;;;;;6.00;2.00;;;;;10.75;68.88;100542.69;4943472;28;45497;-69
2023/12/10 01:03:47;;;;;;;;;3.25;3.00;;;;;10.76;68.84;100541.75;4948409;28;65178;-69
2023/12/10 01:06:13;;;;;;;;;1.00;1.00;;;;;10.78;69.37;100549.56;4957943;28;45536;-69
2023/12/10 01:08:38;;;;;;;;;4.50;3.25;;;;;10.75;69.45;100550.53;4947846;28;45546;-70
2023/12/10 01:11:04;;;;;;;;;3.25;3.00;;;;;10.75;69.36;100563.63;4950168;28;58349;-69
2023/12/10 01:13:29;;;;;;;;;7.00;2.00;;;;;10.75;69.45;100568.84;4945068;28;47218;-69
2023/12/10 01:15:55;;;;;;;;;6.25;1.75;;;;;10.74;69.25;100574.13;4943907;28;51187;-69
2023/12/10 01:18:21;;;;;;;;;5.25;2.75;;;;;10.75;69.05;100594.19;4940040;28;45587;-69
2023/12/10 01:20:46;;;;;;;;;6.75;2.50;;;;;10.74;69.34;100579.38;4941303;28;45469;-70
2023/12/10 01:23:12;;;;;;;;;4.00;2.00;;;;;10.76;68.86;100590.66;4944270;28;75550;-69
2023/12/10 01:25:37;;;;;;;;;8.75;2.75;;;;;10.77;68.87;100600.22;4923593;28;45559;-69
2023/12/10 01:28:03;;;;;;;;;6.25;2.50;;;;;10.80;69.00;100597.50;4948137;28;45458;-69
2023/12/10 01:30:29;;;;;;;;;4.50;2.25;;;;;10.79;69.16;100601.88;4942995;28;45616;-70
2023/12/10 01:32:58;;;;;;;;;8.75;2.75;;;;;10.79;69.20;100607.13;4940390;28;45402;-70
2023/12/10 01:35:24;;;;;;;;;6.50;3.25;;;;;10.77;69.40;100608.91;4946737;28;46107;-70
2023/12/10 01:37:49;;;;;;;;;4.50;2.00;;;;;10.76;69.20;100615.03;4937982;28;45447;-70
2023/12/10 01:40:15;;;;;;;;;6.50;3.00;;;;;10.76;69.10;100625.53;4941271;28;64138;-70
2023/12/10 01:42:41;;;;;;;;;2.00;2.00;;;;;10.76;69.27;100635.13;4958049;28;47147;-69
2023/12/10 01:45:07;;;;;;;;;5.50;2.00;;;;;10.77;69.02;100622.00;4944267;28;45513;-69
2023/12/10 01:47:35;;;;;;;;;4.75;2.00;;;;;10.74;69.39;100618.63;4939749;28;45259;-69
2023/12/10 01:50:04;;;;;;;;;4.75;2.25;;;;;10.68;69.68;100611.81;4940919;28;45402;-69
2023/12/10 01:52:30;;;;;;;;;6.75;2.00;;;;;10.70;69.66;100630.94;4940245;28;45505;-69
2023/12/10 01:54:56;;;;;;;;;5.75;1.25;;;;;10.69;69.52;100625.75;4960283;28;46342;-70
2023/12/10 01:57:21;;;;;;;;;4.25;2.75;;;;;10.67;69.82;100617.09;4940306;28;68948;-69
2023/12/10 01:59:47;;;;;;;;;9.25;3.00;;;;;10.64;69.64;100616.28;4942998;28;73254;-70
2023/12/10 02:02:12;;;;;;;;;7.25;2.25;;;;;10.64;70.00;100608.44;4954546;28;48154;-70
2023/12/10 02:04:39;;;;;;;;;6.25;2.75;;;;;10.63;70.01;100616.31;4962281;28;45534;-71
2023/12/10 02:07:04;;;;;;;;;4.00;1.00;;;;;10.61;69.80;100613.75;4959805;28;45337;-70
2023/12/10 02:09:29;;;;;;;;;3.00;2.25;;;;;10.61;69.67;100610.28;4939081;28;73165;-70
2023/12/10 02:11:56;;;;;;;;;5.00;2.50;;;;;10.60;70.24;100619.03;4943473;28;47481;-70
2023/12/10 02:14:21;;;;;;;;;3.75;2.00;;;;;10.56;69.82;100622.66;4939921;28;46620;-70
2023/12/10 02:16:47;;;;;;;;;10.25;2.25;;;;;10.58;70.29;100628.69;4939709;28;68315;-70
2023/12/10 02:19:12;;;;;;;;;3.50;2.00;;;;;10.58;70.24;100636.53;4959837;28;73210;-70
2023/12/10 02:21:37;;;;;;;;;3.00;1.50;;;;;10.58;70.37;100640.00;4928651;28;47790;-70
2023/12/10 02:24:05;;;;;;;;;3.25;1.50;;;;;10.58;70.43;100641.78;4945563;28;72897;-70
2023/12/10 02:26:30;;;;;;;;;6.75;2.25;;;;;10.56;70.13;100644.44;4939649;28;45420;-70
2023/12/10 02:28:56;;;;;;;;;3.75;1.75;;;;;10.53;70.17;100644.50;4951138;28;45599;-69
2023/12/10 02:31:21;;;;;;;;;4.00;1.00;;;;;10.54;70.70;100655.84;4957289;28;70345;-70
2023/12/10 02:33:47;;;;;;;;;3.00;1.00;;;;;10.51;70.74;100648.94;4941253;28;45382;-70
2023/12/10 02:36:12;;;;;;;;;3.25;2.00;;;;;10.49;70.47;100648.13;4956393;28;63927;-70
2023/12/10 02:38:38;;;;;;;;;8.75;2.50;;;;;10.48;70.75;100661.25;4940901;28;45588;-71
2023/12/10 02:41:04;;;;;;;;;2.25;1.75;;;;;10.45;70.51;100657.81;4944470;28;46257;-71
2023/12/10 02:43:29;;;;;;;;;6.00;2.00;;;;;10.45;71.02;100663.03;4960205;28;45709;-70
2023/12/10 02:45:54;;;;;;;;;5.75;1.75;;;;;10.44;70.77;100661.31;4943564;28;67901;-71
2023/12/10 02:48:22;;;;;;;;;3.00;2.00;;;;;10.45;70.76;100659.56;4962009;28;73135;-70
2023/12/10 02:50:48;;;;;;;;;3.00;1.75;;;;;10.45;71.08;100663.03;4941132;28;46027;-70
2023/12/10 02:53:14;;;;;;;;;3.75;1.00;;;;;10.44;71.13;100655.22;4948089;28;45453;-70
2023/12/10 02:55:39;;;;;;;;;3.25;2.00;;;;;10.42;71.10;100668.34;4941602;28;45431;-70
2023/12/10 02:58:04;;;;;;;;;4.75;1.25;;;;;10.42;70.77;100662.28;4957770;28;70057;-71
2023/12/10 03:00:30;;;;;;;;;6.50;2.00;;;;;10.38;70.87;100668.50;4938765;28;72821;-70
2023/12/10 03:02:55;;;;;;;;;6.50;2.00;;;;;10.37;70.95;100670.22;4943562;28;73061;-70
2023/12/10 03:05:21;;;;;;;;;3.75;1.00;;;;;10.36;71.01;100681.63;4922119;28;69574;-69
2023/12/10 03:07:46;;;;;;;;;3.50;2.00;;;;;10.36;71.14;100686.84;4940740;28;45981;-70
2023/12/10 03:10:11;;;;;;;;;5.00;2.00;;;;;10.37;71.33;100704.25;4939491;28;75052;-70
2023/12/10 03:12:37;;;;;;;;;6.00;1.50;;;;;10.40;71.47;100708.56;4958904;28;45449;-70
2023/12/10 03:15:02;;;;;;;;;3.75;1.00;;;;;10.41;71.23;100715.47;4921428;28;71124;-70
2023/12/10 03:17:27;;;;;;;;;5.00;0.00;;;;;10.43;71.37;100716.31;4945511;28;45668;-70
2023/12/10 03:19:53;;;;;;;;;5.50;2.00;;;;;10.47;71.39;100720.56;4940877;28;45539;-71
2023/12/10 03:22:18;;;;;;;;;6.75;2.50;;;;;10.44;70.89;100718.88;4940122;28;45506;-70
2023/12/10 03:24:43;;;;;;;;;7.25;3.00;;;;;10.48;71.21;100722.25;4938342;28;58999;-70
2023/12/10 03:27:09;;;;;;;;;6.25;1.00;;;;;10.50;71.24;100719.59;4940654;28;52864;-70
2023/12/10 03:29:34;;;;;;;;;3.75;2.00;;;;;10.53;71.42;100723.00;4939540;28;70455;-71
2023/12/10 03:31:59;;;;;;;;;4.25;2.75;;;;;10.54;70.92;100723.88;4943882;28;58041;-71
2023/12/10 03:34:25;;;;;;;;;7.00;3.00;;;;;10.60;71.40;100735.03;4940717;28;66002;-70
2023/12/10 03:36:51;;;;;;;;;3.00;1.00;;;;;10.66;71.31;100738.38;4944617;28;45424;-70
2023/12/10 03:39:16;;;;;;;;;3.25;2.25;;;;;10.69;71.28;100739.16;4939840;28;45917;-70
2023/12/10 03:41:41;;;;;;;;;3.75;1.75;;;;;10.74;71.16;100744.25;4963497;28;68144;-70
2023/12/10 03:44:07;;;;;;;;;9.25;1.00;;;;;10.77;70.84;100749.44;4941707;28;58756;-70
2023/12/10 03:46:32;;;;;;;;;5.50;2.00;;;;;10.81;70.79;100744.03;4944769;28;68622;-69
2023/12/10 03:48:57;;;;;;;;;5.00;3.00;;;;;10.81;70.81;100754.50;4938743;28;75434;-70
2023/12/10 03:51:23;;;;;;;;;3.75;1.75;;;;;10.78;70.80;100765.09;4964185;28;45427;-70
2023/12/10 03:53:48;;;;;;;;;5.25;3.00;;;;;10.79;71.11;100782.50;4944231;28;68126;-70
2023/12/10 03:56:13;;;;;;;;;6.50;1.75;;;;;10.80;70.68;100773.75;4937297;28;73006;-70
2023/12/10 03:58:38;;;;;;;;;1.00;1.00;;;;;10.86;70.76;100783.19;4939892;28;70256;-70
2023/12/10 04:01:04;;;;;;;;;4.25;1.75;;;;;10.86;70.73;100782.34;4936144;28;71950;-70
2023/12/10 04:03:29;;;;;;;;;5.00;2.00;;;;;10.89;70.79;100769.16;4939755;28;45502;-70
2023/12/10 04:05:55;;;;;;;;;3.75;1.75;;;;;10.92;70.98;100764.69;4939329;28;63240;-70
2023/12/10 04:08:20;;;;;;;;;3.75;1.75;;;;;10.90;70.75;100769.09;4939872;28;75449;-70
2023/12/10 04:10:45;;;;;;;;;9.00;3.00;;;;;10.86;70.94;100767.50;4950188;28;59552;-70
2023/12/10 04:13:11;;;;;;;;;3.50;0.00;;;;;10.89;71.09;100777.00;4937418;28;45565;-70
2023/12/10 04:15:36;;;;;;;;;2.75;1.00;;;;;10.92;70.84;100772.53;4942763;28;45477;-70
2023/12/10 04:18:01;;;;;;;;;4.00;1.50;;;;;10.97;70.84;100778.50;4945540;28;47270;-70
2023/12/10 04:20:27;;;;;;;;;6.75;2.00;;;;;10.99;70.93;100768.84;4940416;28;64475;-70
2023/12/10 04:22:52;;;;;;;;;5.00;1.50;;;;;11.01;70.64;100771.44;4946342;28;45342;-71
2023/12/10 04:25:17;;;;;;;;;4.50;2.00;;;;;11.02;70.49;100783.63;4945080;28;45315;-71
2023/12/10 04:27:43;;;;;;;;;7.75;1.50;;;;;11.00;70.71;100772.34;4947651;28;45513;-70
2023/12/10 04:30:08;;;;;;;;;7.25;3.00;;;;;10.98;71.00;100769.75;4943089;28;73046;-71
2023/12/10 04:32:34;;;;;;;;;5.00;2.00;;;;;10.97;70.73;100778.50;4942206;28;45414;-71
2023/12/10 04:34:59;;;;;;;;;2.50;1.00;;;;;10.93;70.28;100778.66;4948008;28;73113;-70
2023/12/10 04:37:25;;;;;;;;;8.75;1.25;;;;;10.90;70.86;100779.59;4952280;28;46217;-70
2023/12/10 04:39:50;;;;;;;;;6.25;2.00;;;;;10.85;70.62;100768.38;4923331;28;45784;-70
2023/12/10 04:42:15;;;;;;;;;2.25;2.00;;;;;10.80;70.60;100780.72;4947242;28;66427;-70
2023/12/10 04:44:40;;;;;;;;;3.25;2.00;;;;;10.78;70.89;100774.69;4943632;28;46633;-70
2023/12/10 04:47:06;;;;;;;;;6.50;2.75;;;;;10.76;71.08;100773.88;4944287;28;74537;-70
2023/12/10 04:49:31;;;;;;;;;1.25;1.00;;;;;10.75;71.14;100775.63;4939867;28;65745;-70
2023/12/10 04:51:57;;;;;;;;;1.00;1.00;;;;;10.76;70.93;100745.06;4943600;28;69363;-70
2023/12/10 04:54:22;;;;;;;;;4.25;1.75;;;;;10.73;71.01;100769.59;4940327;28;45559;-70
2023/12/10 04:56:47;;;;;;;;;3.75;2.25;;;;;10.71;71.30;100768.78;4957796;28;45444;-70
2023/12/10 04:59:13;;;;;;;;;6.25;0.50;;;;;10.68;71.28;100783.69;4939229;28;45509;-70
2023/12/10 05:01:38;;;;;;;;;7.00;1.00;;;;;10.64;70.96;100778.53;4936091;28;69620;-71
2023/12/10 05:04:03;;;;;;;;;2.75;1.50;;;;;10.61;71.13;100776.00;4959285;28;50557;-70
2023/12/10 05:06:30;;;;;;;;;3.00;1.00;;;;;10.58;71.66;100770.84;4952661;28;75127;-70
2023/12/10 05:08:55;;;;;;;;;2.00;2.00;;;;;10.59;71.45;100784.81;4939281;28;45902;-70
2023/12/10 05:11:21;;;;;;;;;5.50;2.00;;;;;10.60;71.57;100796.97;4936767;28;68617;-71
2023/12/10 05:13:46;;;;;;;;;6.50;2.50;;;;;10.59;71.47;100788.28;4942389;28;73051;-70
2023/12/10 05:16:12;;;;;;;;;2.25;1.00;;;;;10.61;71.42;100796.94;4938579;28;71252;-70
2023/12/10 05:18:37;;;;;;;;;5.50;2.00;;;;;10.66;71.51;100796.81;4936031;28;45398;-70
2023/12/10 05:21:02;;;;;;;;;5.00;2.00;;;;;10.69;71.55;100801.09;4942406;28;45342;-70
2023/12/10 05:23:28;;;;;;;;;6.25;2.00;;;;;10.67;71.38;100800.28;4943585;28;72985;-70
2023/12/10 05:25:53;;;;;;;;;3.50;1.25;;;;;10.66;71.11;100796.81;4936073;28;75889;-70
2023/12/10 05:28:18;;;;;;;;;5.00;1.00;;;;;10.66;71.45;100788.09;4939984;28;69070;-70
2023/12/10 05:30:44;;;;;;;;;9.00;1.00;;;;;10.66;71.33;100794.22;4936982;28;69358;-71
2023/12/10 05:33:09;;;;;;;;;2.50;1.00;;;;;10.66;71.47;100801.19;4944998;28;45437;-70
2023/12/10 05:35:34;;;;;;;;;5.00;1.50;;;;;10.67;71.10;100808.16;4942917;28;46262;-70
2023/12/10 05:38:00;;;;;;;;;2.25;1.25;;;;;10.66;71.38;100809.03;4943699;28;69025;-70
2023/12/10 05:40:25;;;;;;;;;5.25;2.00;;;;;10.69;71.32;100819.44;4939495;28;50016;-70
2023/12/10 05:42:52;;;;;;;;;3.00;2.00;;;;;10.68;71.19;100823.81;4944157;28;45471;-70
2023/12/10 05:45:17;;;;;;;;;6.00;2.00;;;;;10.72;71.12;100828.06;4944988;28;45460;-70
2023/12/10 05:47:42;;;;;;;;;4.50;2.50;;;;;10.72;71.03;100833.28;4943402;28;70622;-70
2023/12/10 05:50:08;;;;;;;;;7.25;2.00;;;;;10.72;71.15;100821.97;4940370;28;69966;-70
2023/12/10 05:52:33;;;;;;;;;4.75;1.75;;;;;10.71;70.99;100834.22;4944901;28;45572;-70
2023/12/10 05:54:59;;;;;;;;;4.50;3.00;;;;;10.71;71.00;100822.84;4941504;28;61450;-70
2023/12/10 05:57:24;;;;;;;;;4.75;1.25;;;;;10.72;71.27;100832.44;4942135;28;45488;-70
2023/12/10 05:59:50;;;;;;;;;7.75;2.00;;;;;10.73;71.27;100832.41;4942892;28;46756;-70
2023/12/10 06:02:15;;;;;;;;;5.50;2.00;;;;;10.72;71.13;100835.91;4925864;28;47475;-70
2023/12/10 06:04:41;;;;;;;;;6.00;1.75;;;;;10.71;71.10;100836.84;4955472;28;74498;-70
2023/12/10 06:07:07;;;;;;;;;6.50;3.00;;;;;10.72;71.15;100832.44;4944628;28;45559;-70
2023/12/10 06:09:32;;;;;;;;;3.25;0.50;;;;;10.71;70.70;100838.56;4965006;28;69425;-70
2023/12/10 06:11:57;;;;;;;;;4.00;2.00;;;;;10.69;70.87;100832.50;4945181;28;46896;-70
2023/12/10 06:14:23;;;;;;;;;4.00;2.00;;;;;10.70;70.90;100832.47;4961059;28;70725;-69
2023/12/10 06:16:48;;;;;;;;;5.50;2.00;;;;;10.72;71.29;100838.53;4940091;28;72062;-69
2023/12/10 06:19:13;;;;;;;;;2.25;1.00;;;;;10.75;70.88;100854.16;4945442;28;58025;-69
2023/12/10 06:21:39;;;;;;;;;4.75;2.00;;;;;10.75;70.80;100848.09;4943295;28;67059;-69
2023/12/10 06:24:04;;;;;;;;;11.50;1.00;;;;;10.78;70.57;100843.63;4945226;28;45220;-69
2023/12/10 06:26:30;;;;;;;;;4.75;2.00;;;;;10.80;71.03;100841.81;4943561;28;45490;-69
2023/12/10 06:28:55;;;;;;;;;2.50;1.50;;;;;10.80;70.70;100836.59;4959815;28;45633;-69
2023/12/10 06:31:21;;;;;;;;;7.00;1.75;;;;;10.80;70.88;100835.69;4938041;28;45636;-69
2023/12/10 06:33:46;;;;;;;;;5.75;2.00;;;;;10.80;70.57;100838.31;4942195;28;74697;-70
2023/12/10 06:36:11;;;;;;;;;4.25;2.00;;;;;10.79;70.65;100836.63;4944911;28;67674;-69
2023/12/10 06:38:37;;;;;;;;;6.00;2.00;;;;;10.80;70.65;100838.31;4943560;28;45279;-70
2023/12/10 06:41:03;;;;;;;;;6.50;1.75;;;;;10.80;71.02;100836.59;4943013;28;46082;-70
2023/12/10 06:43:28;;;;;;;;;5.50;2.75;;;;;10.83;70.80;100846.09;4944866;28;47294;-70
2023/12/10 06:45:57;;;;;;;;;6.00;1.00;;;;;10.89;70.66;100848.56;4946473;28;45286;-70
2023/12/10 06:48:23;;;;;;;;;4.00;1.00;;;;;10.93;70.61;100857.22;4943083;28;45421;-70
2023/12/10 06:50:48;;;;;;;;;4.00;1.25;;;;;10.95;70.69;100853.63;4958885;28;73041;-71
2023/12/10 06:53:13;;;;;;;;;4.75;2.00;;;;;10.98;70.56;100844.84;4958847;28;74664;-70
2023/12/10 06:55:39;;;;;;;;;3.00;1.00;;;;;10.97;70.66;100845.75;4942531;28;46093;-70
2023/12/10 06:58:04;;;;;;;;;4.00;2.00;;;;;10.95;70.63;100853.63;4941909;28;45560;-70
2023/12/10 07:00:30;;;;;;;;;3.75;1.50;;;;;10.92;70.51;100851.09;4939498;28;45561;-71
2023/12/10 07:02:56;;;;;;;;;6.75;2.00;;;;;10.93;70.81;100857.22;4937358;28;45395;-70
2023/12/10 07:05:21;;;;;;;;;4.75;2.00;;;;;10.93;70.27;100859.81;4939887;28;45465;-70
2023/12/10 07:07:46;;;;;;;;;7.25;2.00;;;;;10.91;70.55;100849.38;4945248;28;68224;-71
2023/12/10 07:10:12;;;;;;;;;5.75;1.50;;;;;10.92;70.54;100848.47;4938577;28;72962;-70
2023/12/10 07:12:37;;;;;;;;;3.75;1.25;;;;;10.94;70.77;100851.06;4945797;28;46705;-70
2023/12/10 07:15:03;;;;;;;;;3.00;2.50;;;;;10.94;70.71;100851.94;4940644;28;73218;-70
2023/12/10 07:17:28;;;;;;;;;6.00;1.25;;;;;10.96;70.78;100870.19;4957748;28;45402;-70
2023/12/10 07:19:53;;;;;;;;;8.00;3.75;;;;;10.95;70.80;100865.88;4934311;28;69252;-70
2023/12/10 07:22:19;;;;;;;;;6.00;2.00;;;;;10.97;70.74;100861.44;4945319;28;45401;-70
2023/12/10 07:24:44;;;;;;;;;9.00;2.00;;;;;10.93;70.68;100858.06;4941508;28;73011;-70
2023/12/10 07:27:09;;;;;;;;;5.50;2.00;;;;;10.94;70.67;100866.75;4947442;28;45339;-70
2023/12/10 07:29:35;;;;;;;;;3.00;2.00;;;;;10.94;70.49;100870.25;4938133;28;64698;-71
2023/12/10 07:32:00;;;;;;;;;6.25;4.00;;;;;10.94;70.55;100870.25;4942817;28;73207;-70
2023/12/10 07:34:25;;;;;;;;;6.25;2.75;;;;;10.92;70.52;100873.81;4944218;28;45460;-70
2023/12/10 07:36:51;;;;;;;;;6.75;1.75;;;;;10.92;70.78;100879.03;4941273;28;66417;-70
2023/12/10 07:39:16;;;;;;;;;11.25;3.75;;;;;10.89;70.81;100874.75;4939231;28;73264;-71
2023/12/10 07:41:41;;;;;;;;;9.75;2.50;;;;;10.86;70.89;100873.97;4935853;28;70518;-71
2023/12/10 07:44:07;;;;;;;;;7.00;2.00;;;;;10.82;70.56;100868.81;4937968;28;57180;-71
2023/12/10 07:46:32;;;;;;;;;4.25;3.25;;;;;10.81;71.08;100874.09;4930689;28;45487;-71
2023/12/10 07:48:57;;;;;;;;;9.50;4.75;;;;;10.83;71.35;100880.13;4941846;28;75153;-71
2023/12/10 07:51:23;;;;;;;;;7.25;2.00;;;;;10.88;71.28;100878.25;4940244;28;45397;-71
2023/12/10 07:53:48;;;;;;;;;5.50;1.25;;;;;10.93;71.21;100881.63;4945791;28;45485;-70
2023/12/10 07:56:14;;;;;;;;;5.75;2.00;;;;;10.97;70.91;100874.53;4938687;28;45434;-71
2023/12/10 07:58:39;;;;;;;;;7.50;2.00;;;;;11.01;71.01;100874.44;4936414;28;45557;-71
2023/12/10 08:01:05;;;;;;;;;10.25;1.50;;;;;11.04;70.82;100877.88;4944904;28;68099;-70
2023/12/10 08:03:30;;;;;;;;;6.50;3.00;;;;;11.08;71.04;100875.09;4947307;28;45617;-70
2023/12/10 08:05:56;;;;;;;;;8.50;2.75;;;;;11.11;70.91;100866.31;4940552;28;68328;-70
2023/12/10 08:08:22;;;;;;;;;8.25;3.25;;;;;11.13;70.43;100859.28;4943109;28;45591;-70
2023/12/10 08:10:47;;;;;;;;;4.00;2.25;;;;;11.14;70.70;100850.53;4956725;28;64612;-69
2023/12/10 08:13:12;;;;;;;;;7.50;2.00;;;;;11.15;70.67;100850.47;4945957;28;68494;-70
2023/12/10 08:15:38;;;;;;;;;4.75;1.75;;;;;11.13;70.52;100854.03;4937703;28;71320;-70
2023/12/10 08:18:03;;;;;;;;;4.75;1.25;;;;;11.12;70.62;100847.94;4940766;28;66274;-70
2023/12/10 08:20:28;;;;;;;;;6.75;2.00;;;;;11.11;70.54;100851.47;4911805;28;47224;-71
2023/12/10 08:22:54;;;;;;;;;5.00;3.00;;;;;11.09;70.30;100848.03;4945018;28;45386;-70
2023/12/10 08:25:19;;;;;;;;;5.00;3.00;;;;;11.09;70.35;100850.66;4943754;28;69022;-70
2023/12/10 08:27:44;;;;;;;;;1.75;1.25;;;;;11.08;70.75;100848.06;4942483;28;64597;-70
2023/12/10 08:30:10;;;;;;;;;4.00;1.00;;;;;11.11;70.88;100858.47;4937979;28;46044;-71
2023/12/10 08:32:36;;;;;;;;;5.50;1.75;;;;;11.12;70.64;100855.81;4938510;28;45477;-70
2023/12/10 08:35:01;;;;;;;;;7.50;3.00;;;;;11.14;70.73;100858.38;4941923;28;66099;-70
2023/12/10 08:37:26;;;;;;;;;1.75;1.50;;;;;11.17;70.72;100863.53;4952224;28;71552;-71
2023/12/10 08:39:52;;;;;;;;;4.00;2.00;;;;;11.19;70.21;100859.09;4940975;28;70068;-71
2023/12/10 08:42:17;;;;;;;;;7.25;3.75;;;;;11.21;70.56;100865.19;4951468;28;45433;-70
2023/12/10 08:44:42;;;;;;;;;8.25;3.00;;;;;11.21;70.58;100855.56;4928954;28;45562;-70
2023/12/10 08:47:08;;;;;;;;;6.00;3.00;;;;;11.20;70.82;100855.59;4962207;28;45429;-68
2023/12/10 08:49:33;;;;;;;;;4.25;2.75;;;;;11.24;70.50;100851.97;4953717;28;45516;-67
2023/12/10 08:51:59;;;;;;;;;6.50;3.25;;;;;11.26;70.36;100851.94;4945049;28;66690;-69
2023/12/10 08:54:24;;;;;;;;;4.50;2.50;;;;;11.30;70.63;100845.72;4945647;28;64798;-76
2023/12/10 08:56:49;;;;;;;;;7.25;2.75;;;;;11.38;70.46;100851.59;4945444;28;69493;-73
2023/12/10 08:59:15;;;;;;;;;7.75;3.50;;;;;11.42;70.13;100845.38;4933046;28;60864;-72
2023/12/10 09:01:40;;;;;;;;;4.75;2.00;;;;;11.40;70.04;100837.56;4941719;28;45449;-82
2023/12/10 09:04:05;;;;;;;;;6.00;3.00;;;;;11.44;70.42;100842.69;4940001;28;68138;-75
2023/12/10 09:06:31;;;;;;;;;8.50;3.75;;;;;11.44;70.34;100827.84;4952260;28;69727;-73
2023/12/10 09:08:57;;;;;;;;;6.00;4.00;;;;;11.45;69.89;100819.06;4943516;28;47565;-72
2023/12/10 09:11:22;;;;;;;;;3.50;2.75;;;;;11.43;70.24;100809.53;4951039;28;45332;-70
2023/12/10 09:13:47;;;;;;;;;7.50;2.00;;;;;11.43;70.34;100815.63;4942528;28;53532;-72
2023/12/10 09:16:15;;;;;;;;;6.75;3.00;;;;;11.47;70.02;100819.88;4945871;28;73085;-71
2023/12/10 09:18:40;;;;;;;;;6.25;2.00;;;;;11.46;70.39;100818.16;4937917;28;46675;-68
2023/12/10 09:21:07;;;;;;;;;7.00;3.25;;;;;11.48;70.31;100818.97;4946662;28;69333;-70
2023/12/10 09:23:34;;;;;;;;;5.75;4.00;;;;;11.49;70.03;100809.34;4951028;28;45317;-70
2023/12/10 09:25:59;;;;;;;;;9.00;2.75;;;;;11.50;70.46;100808.47;4947130;28;45619;-68
2023/12/10 09:28:25;;;;;;;;;4.00;3.00;;;;;11.50;70.61;100800.59;4947753;28;47541;-68
2023/12/10 09:30:50;;;;;;;;;6.25;3.00;;;;;11.54;70.63;100789.09;4946120;28;73076;-67
2023/12/10 09:33:15;;;;;;;;;27.00;16.00;;;;;11.58;70.40;100780.28;4947180;28;45350;-70
2023/12/10 09:35:41;;;;;;;;;13.50;6.75;;;;;11.61;69.99;100779.31;4964459;28;66572;-69
2023/12/10 09:38:06;;;;;;;;;9.75;2.50;;;;;11.65;70.10;100773.94;4940817;28;48089;-72
2023/12/10 09:40:33;;;;;;;;;7.00;4.00;;;;;11.68;70.00;100780.81;4947169;28;63452;-71
2023/12/10 09:42:58;;;;;;;;;3.00;3.00;;;;;11.69;70.29;100765.06;4950938;28;45590;-70
2023/12/10 09:45:24;;;;;;;;;5.50;3.00;;;;;11.69;70.06;100779.94;4943782;28;45483;-72
2023/12/10 09:47:50;;;;;;;;;7.00;4.00;;;;;11.71;70.19;100763.25;4949573;28;75425;-73
2023/12/10 09:50:16;;;;;;;;;10.50;4.00;;;;;11.71;70.08;100754.53;4930440;28;46070;-72
2023/12/10 09:52:41;;;;;;;;;7.00;5.00;;;;;11.73;70.21;100779.78;4931665;28;45413;-71
2023/12/10 09:55:06;;;;;;;;;9.25;4.00;;;;;11.75;70.00;100775.34;4958296;28;60147;-70
2023/12/10 09:57:32;;;;;;;;;9.50;4.75;;;;;11.81;70.20;100792.66;4943774;28;51212;-72
2023/12/10 09:59:57;;;;;;;;;9.50;5.75;;;;;11.83;70.45;100789.97;4942863;28;45320;-71
2023/12/10 10:02:30;;;;;;;;;5.00;4.50;;;;;11.86;70.13;100780.25;4943773;28;54427;-71
2023/12/10 10:04:56;;;;;;;;;7.00;5.00;;;;;11.93;70.08;100778.31;4919978;28;45536;-67
2023/12/10 10:07:21;;;;;;;;;11.25;4.75;;;;;11.96;70.33;100763.34;4951648;28;76073;-79
2023/12/10 10:09:46;;;;;;;;;11.00;4.00;;;;;11.98;69.86;100751.97;4959933;28;70500;-73
2023/12/10 10:12:13;;;;;;;;;8.00;3.25;;;;;11.95;69.61;100756.41;4946094;28;45649;-71
2023/12/10 10:14:52;;;;;;;;;8.50;4.00;;;;;12.01;69.70;100744.84;4944235;28;45614;-70
2023/12/10 10:17:28;;;;;;;;;9.00;5.50;;;;;12.03;69.60;100739.56;4948733;28;47671;-69
2023/12/10 10:19:54;;;;;;;;;6.00;4.25;;;;;12.08;69.75;100724.53;4948647;28;45381;-70
2023/12/10 10:22:21;;;;;;;;;7.25;5.00;;;;;12.11;69.66;100727.91;4948782;28;45291;-68
2023/12/10 10:24:47;;;;;;;;;10.00;4.50;;;;;12.18;69.74;100730.31;4940774;28;45461;-70
2023/12/10 10:27:12;;;;;;;;;10.25;4.00;;;;;12.22;69.49;100721.44;4961619;28;45997;-70
2023/12/10 10:29:38;;;;;;;;;8.00;5.00;;;;;12.29;69.13;100712.44;4958873;28;73241;-70
2023/12/10 10:32:04;;;;;;;;;7.50;4.25;;;;;12.32;68.86;100702.69;4955912;28;45382;-69
2023/12/10 10:34:29;;;;;;;;;10.25;4.25;;;;;12.37;69.01;100701.66;4955893;28;45472;-70
2023/12/10 10:36:55;;;;;;;;;5.75;2.75;;;;;12.41;68.71;100700.66;4939884;28;73699;-69
2023/12/10 10:39:20;;;;;;;;;7.75;3.75;;;;;12.45;68.41;100697.03;4924733;28;71958;-67
2023/12/10 10:41:45;;;;;;;;;11.00;3.00;;;;;12.49;67.92;100681.09;4944943;28;64760;-64
2023/12/10 10:44:11;;;;;;;;;6.75;3.00;;;;;12.53;67.92;100671.34;4942997;28;60583;-66
2023/12/10 10:46:36;;;;;;;;;3.50;2.75;;;;;12.54;67.19;100660.78;4963072;28;47010;-65
2023/12/10 10:49:02;;;;;;;;;4.75;3.50;;;;;12.54;67.48;100649.44;4939745;28;73210;-65
2023/12/10 10:51:30;;;;;;;;;7.50;3.00;;;;;12.54;67.15;100638.94;4947415;28;45489;-70
2023/12/10 10:53:56;;;;;;;;;7.00;2.50;;;;;12.56;67.29;100631.84;4942607;28;45428;-71
2023/12/10 10:56:22;;;;;;;;;7.75;4.75;;;;;12.59;66.88;100637.00;4952225;28;47978;-65
2023/12/10 10:58:47;;;;;;;;;11.25;4.50;;;;;12.60;67.25;100638.69;4942582;28;45502;-65
2023/12/10 11:01:36;;;;;;;;;6.50;2.00;;;;;12.62;66.81;100642.13;4943009;28;58342;-65
2023/12/10 11:04:01;;;;;;;;;6.50;2.75;;;;;12.63;66.84;100643.84;4932804;28;45574;-64
2023/12/10 11:06:27;;;;;;;;;6.50;4.00;;;;;12.63;66.44;100643.84;4938982;28;73568;-69
2023/12/10 11:08:59;;;;;;;;;8.00;3.00;;;;;12.66;66.32;100627.97;4936858;28;72101;-67
2023/12/10 11:11:26;;;;;;;;;10.00;2.00;;;;;12.70;66.07;100632.19;4940002;28;45478;-67
2023/12/10 11:13:53;;;;;;;;;7.00;3.00;;;;;12.75;66.57;100625.91;4957253;28;45562;-66
2023/12/10 11:16:18;;;;;;;;;10.75;4.25;;;;;12.77;66.37;100630.22;4936863;28;46254;-68